createdAt,value
2023-04-22T00:02:24.484Z,41.97
2023-04-22T00:04:51.688Z,40.60
2023-04-22T00:07:18.663Z,37.13
2023-04-22T00:09:46.037Z,40.07
2023-04-22T00:12:13.265Z,40.63
2023-04-22T00:14:40.543Z,44.90
2023-04-22T00:17:07.504Z,41.03
2023-04-22T00:19:35.085Z,42.13
2023-04-22T00:22:03.128Z,42.37
2023-04-22T00:24:30.301Z,46.13
2023-04-22T00:26:57.338Z,43.17
2023-04-22T00:29:26.021Z,41.00
2023-04-22T00:31:54.155Z,45.17
2023-04-22T00:34:21.444Z,38.73
2023-04-22T00:36:48.428Z,40.93
2023-04-22T00:39:15.453Z,37.30
2023-04-22T00:41:42.928Z,37.33
2023-04-22T00:44:11.185Z,38.27
2023-04-22T00:46:42.136Z,41.80
2023-04-22T00:49:09.399Z,39.30
2023-04-22T00:51:36.432Z,43.33
2023-04-22T00:54:04.675Z,39.53
2023-04-22T00:56:33.975Z,34.47
2023-04-22T00:59:01.060Z,40.17
2023-04-22T01:01:29.808Z,35.03
2023-04-22T01:03:57.368Z,35.87
2023-04-22T01:06:24.679Z,28.60
2023-04-22T01:08:51.616Z,29.80
2023-04-22T01:11:19.105Z,32.23
2023-04-22T01:13:46.597Z,32.97
2023-04-22T01:16:13.761Z,33.67
2023-04-22T01:18:40.788Z,39.43
2023-04-22T01:21:08.803Z,32.87
2023-04-22T01:23:35.954Z,44.57
2023-04-22T01:26:02.850Z,40.37
2023-04-22T01:28:29.723Z,33.13
2023-04-22T01:30:57.088Z,36.20
2023-04-22T01:33:24.303Z,36.67
2023-04-22T01:35:51.114Z,34.20
2023-04-22T01:38:18.258Z,35.50
2023-04-22T01:40:45.024Z,32.03
2023-04-22T01:43:11.974Z,32.03
2023-04-22T01:45:38.844Z,33.00
2023-04-22T01:48:08.715Z,34.73
2023-04-22T01:50:37.226Z,34.53
2023-04-22T01:53:04.230Z,32.63
2023-04-22T01:55:36.024Z,28.03
2023-04-22T01:58:04.307Z,37.07
2023-04-22T02:00:31.737Z,34.57
2023-04-22T02:02:58.724Z,32.37
2023-04-22T02:05:26.352Z,35.10
2023-04-22T02:07:53.625Z,36.77
2023-04-22T02:10:21.146Z,38.43
2023-04-22T02:12:48.257Z,37.53
2023-04-22T02:15:15.331Z,39.20
2023-04-22T02:17:43.585Z,47.70
2023-04-22T02:20:11.431Z,47.80
2023-04-22T02:22:39.485Z,53.10
2023-04-22T02:25:06.827Z,59.27
2023-04-22T02:27:33.883Z,58.37
2023-04-22T02:30:00.648Z,57.53
2023-04-22T02:32:27.497Z,60.07
2023-04-22T02:34:54.436Z,53.30
2023-04-22T02:37:22.871Z,44.63
2023-04-22T02:39:50.086Z,44.63
2023-04-22T02:42:17.038Z,42.43
2023-04-22T02:44:43.855Z,38.87
2023-04-22T02:47:11.502Z,41.80
2023-04-22T02:49:38.792Z,44.37
2023-04-22T02:52:06.152Z,39.10
2023-04-22T02:54:33.077Z,41.03
2023-04-22T02:56:59.977Z,47.57
2023-04-22T02:59:26.839Z,47.80
2023-04-22T03:01:53.710Z,39.07
2023-04-22T03:04:22.045Z,43.67
2023-04-22T03:06:49.857Z,42.80
2023-04-22T03:09:17.376Z,40.53
2023-04-22T03:11:44.640Z,39.90
2023-04-22T03:14:11.571Z,45.70
2023-04-22T03:16:38.703Z,48.33
2023-04-22T03:19:06.389Z,42.10
2023-04-22T03:21:33.175Z,41.97
2023-04-22T03:24:00.126Z,42.70
2023-04-22T03:26:26.918Z,41.20
2023-04-22T03:28:53.745Z,39.30
2023-04-22T03:31:21.569Z,40.70
2023-04-22T03:33:48.622Z,36.13
2023-04-22T03:36:16.590Z,41.13
2023-04-22T03:38:43.577Z,42.27
2023-04-22T03:41:10.465Z,40.43
2023-04-22T03:43:37.229Z,39.97
2023-04-22T03:46:04.167Z,28.93
2023-04-22T03:48:35.567Z,33.63
2023-04-22T03:51:02.893Z,36.03
2023-04-22T03:53:29.895Z,32.50
2023-04-22T03:55:56.677Z,35.13
2023-04-22T03:58:24.432Z,38.43
2023-04-22T04:00:51.453Z,31.77
2023-04-22T04:03:18.696Z,27.33
2023-04-22T04:05:45.638Z,30.43
2023-04-22T04:08:12.520Z,34.27
2023-04-22T04:10:39.348Z,30.97
2023-04-22T04:13:06.338Z,30.47
2023-04-22T04:15:34.065Z,33.60
2023-04-22T04:18:01.555Z,27.30
2023-04-22T04:20:28.721Z,29.23
2023-04-22T04:22:56.316Z,29.57
2023-04-22T04:25:23.656Z,31.47
2023-04-22T04:27:51.888Z,24.87
2023-04-22T04:30:19.717Z,28.27
2023-04-22T04:32:46.550Z,31.73
2023-04-22T04:35:14.302Z,37.70
2023-04-22T04:37:43.562Z,38.17
2023-04-22T04:40:12.383Z,31.07
2023-04-22T04:42:39.306Z,32.13
2023-04-22T04:45:09.245Z,31.20
2023-04-22T04:47:36.166Z,31.60
2023-04-22T04:50:04.403Z,28.60
2023-04-22T04:52:33.453Z,29.30
2023-04-22T04:55:00.333Z,25.90
2023-04-22T04:57:27.151Z,26.33
2023-04-22T04:59:53.990Z,25.90
2023-04-22T05:02:20.964Z,30.43
2023-04-22T05:04:48.063Z,26.90
2023-04-22T05:07:15.404Z,29.50
2023-04-22T05:09:42.524Z,23.77
2023-04-22T05:12:09.800Z,25.13
2023-04-22T05:14:36.606Z,31.93
2023-04-22T05:17:03.586Z,25.07
2023-04-22T05:19:30.302Z,25.07
2023-04-22T05:21:57.312Z,22.90
2023-04-22T05:24:24.384Z,22.47
2023-04-22T05:26:52.181Z,22.80
2023-04-22T05:29:20.162Z,25.10
2023-04-22T05:31:47.245Z,20.73
2023-04-22T05:34:14.426Z,24.60
2023-04-22T05:36:41.152Z,24.37
2023-04-22T05:39:08.684Z,20.00
2023-04-22T05:41:35.665Z,19.83
2023-04-22T05:44:02.697Z,17.70
2023-04-22T05:46:29.720Z,20.53
2023-04-22T05:48:56.825Z,20.90
2023-04-22T05:51:23.908Z,18.10
2023-04-22T05:53:51.296Z,16.07
2023-04-22T05:56:18.342Z,17.17
2023-04-22T05:58:45.320Z,19.70
2023-04-22T06:01:12.499Z,18.00
2023-04-22T06:03:39.831Z,20.07
2023-04-22T06:06:07.445Z,22.33
2023-04-22T06:08:34.580Z,17.60
2023-04-22T06:11:01.671Z,18.67
2023-04-22T06:13:28.462Z,18.90
2023-04-22T06:15:55.617Z,19.20
2023-04-22T06:18:22.503Z,16.53
2023-04-22T06:20:49.460Z,19.43
2023-04-22T06:23:16.293Z,19.77
2023-04-22T06:25:43.777Z,17.83
2023-04-22T06:28:13.557Z,16.00
2023-04-22T06:30:40.557Z,18.80
2023-04-22T06:33:07.548Z,20.70
2023-04-22T06:35:34.709Z,19.67
2023-04-22T06:38:02.622Z,21.27
2023-04-22T06:40:29.478Z,19.03
2023-04-22T06:42:56.270Z,15.83
2023-04-22T06:45:23.152Z,15.23
2023-04-22T06:47:51.970Z,15.73
2023-04-22T06:50:18.960Z,16.43
2023-04-22T06:52:46.226Z,15.37
2023-04-22T06:55:13.362Z,13.67
2023-04-22T06:57:40.488Z,18.23
2023-04-22T07:00:10.796Z,15.43
2023-04-22T07:02:37.994Z,20.30
2023-04-22T07:05:05.282Z,16.43
2023-04-22T07:07:32.181Z,17.77
2023-04-22T07:09:58.913Z,19.45
2023-04-22T07:12:26.366Z,13.97
2023-04-22T07:14:53.501Z,12.80
2023-04-22T07:17:22.512Z,16.27
2023-04-22T07:19:49.655Z,13.97
2023-04-22T07:22:16.438Z,10.85
2023-04-22T07:24:43.284Z,11.70
2023-04-22T07:27:11.098Z,11.63
2023-04-22T07:29:38.131Z,12.85
2023-04-22T07:32:05.267Z,10.10
2023-04-22T07:34:32.420Z,10.98
2023-04-22T07:36:59.558Z,9.52
2023-04-22T07:39:26.885Z,9.20
2023-04-22T07:41:53.853Z,8.70
2023-04-22T07:44:21.773Z,8.00
2023-04-22T07:46:49.033Z,6.85
2023-04-22T07:49:17.185Z,9.25
2023-04-22T07:51:45.408Z,6.18
2023-04-22T07:54:12.386Z,11.57
2023-04-22T07:56:39.333Z,9.98
2023-04-22T07:59:06.303Z,8.98
2023-04-22T08:01:33.286Z,11.15
2023-04-22T08:04:00.452Z,12.70
2023-04-22T08:06:28.194Z,10.00
2023-04-22T08:08:55.128Z,8.55
2023-04-22T08:11:22.040Z,10.75
2023-04-22T08:13:49.086Z,11.30
2023-04-22T08:16:16.154Z,10.90
2023-04-22T08:18:43.055Z,10.07
2023-04-22T08:21:10.077Z,9.98
2023-04-22T08:23:36.886Z,12.57
2023-04-22T08:26:04.164Z,5.45
2023-04-22T08:28:31.598Z,6.10
2023-04-22T08:30:58.733Z,4.78
2023-04-22T08:33:27.243Z,4.65
2023-04-22T08:35:54.566Z,6.15
2023-04-22T08:38:21.312Z,6.97
2023-04-22T08:40:48.651Z,6.88
2023-04-22T08:43:15.897Z,6.90
2023-04-22T08:45:43.145Z,8.00
2023-04-22T08:48:10.270Z,9.27
2023-04-22T08:50:39.449Z,8.43
2023-04-22T08:53:06.514Z,6.07
2023-04-22T08:55:35.370Z,5.10
2023-04-22T08:58:04.240Z,6.47
2023-04-22T09:00:32.334Z,9.20
2023-04-22T09:03:03.090Z,7.45
2023-04-22T09:05:32.548Z,7.65
2023-04-22T09:07:59.785Z,10.40
2023-04-22T09:10:26.734Z,6.22
2023-04-22T09:12:54.471Z,6.95
2023-04-22T09:15:21.646Z,7.68
2023-04-22T09:17:52.024Z,4.47
2023-04-22T09:20:19.927Z,6.80
2023-04-22T09:22:49.540Z,6.40
2023-04-22T09:25:27.008Z,4.72
2023-04-22T09:27:55.874Z,7.28
2023-04-22T09:30:28.177Z,6.68
2023-04-22T09:32:57.645Z,5.13
2023-04-22T09:35:36.463Z,5.03
2023-04-22T09:38:06.370Z,6.25
2023-04-22T09:40:34.253Z,7.47
2023-04-22T09:43:03.645Z,4.45
2023-04-22T09:45:33.111Z,6.40
2023-04-22T09:48:17.805Z,5.00
2023-04-22T09:50:46.962Z,7.07
2023-04-22T09:53:19.188Z,5.82
2023-04-22T09:55:49.144Z,9.82
2023-04-22T09:58:23.947Z,6.60
2023-04-22T10:00:54.807Z,6.25
2023-04-22T10:03:21.910Z,6.97
2023-04-22T10:05:49.167Z,5.20
2023-04-22T10:08:16.994Z,4.88
2023-04-22T10:10:44.442Z,4.32
2023-04-22T10:13:11.724Z,3.05
2023-04-22T10:15:57.820Z,3.75
2023-04-22T10:18:28.706Z,4.68
2023-04-22T10:20:57.882Z,2.95
2023-04-22T10:23:25.228Z,5.15
2023-04-22T10:25:56.277Z,4.57
2023-04-22T10:28:24.646Z,3.92
2023-04-22T10:30:51.870Z,5.22
2023-04-22T10:33:21.854Z,5.00
2023-04-22T10:36:10.464Z,5.85
2023-04-22T10:38:39.436Z,5.35
2023-04-22T10:41:06.518Z,4.75
2023-04-22T10:43:45.214Z,3.75
2023-04-22T10:46:32.136Z,4.93
2023-04-22T10:49:08.921Z,4.00
2023-04-22T10:52:01.139Z,4.30
2023-04-22T10:54:31.106Z,8.40
2023-04-22T10:57:07.087Z,10.27
2023-04-22T10:59:42.084Z,8.55
2023-04-22T11:02:09.875Z,3.10
2023-04-22T11:04:37.334Z,4.93
2023-04-22T11:07:28.154Z,4.32
2023-04-22T11:10:09.596Z,4.60
2023-04-22T11:12:39.426Z,5.53
2023-04-22T11:15:17.374Z,4.05
2023-04-22T11:17:46.641Z,6.45
2023-04-22T11:20:18.303Z,6.78
2023-04-22T11:22:47.847Z,4.35
2023-04-22T11:25:15.404Z,7.63
2023-04-22T11:27:43.740Z,4.50
2023-04-22T11:30:18.880Z,3.72
2023-04-22T11:32:48.270Z,5.00
2023-04-22T11:35:18.695Z,5.82
2023-04-22T11:37:48.030Z,3.85
2023-04-22T11:40:30.965Z,3.10
2023-04-22T11:43:01.524Z,8.27
2023-04-22T11:45:30.027Z,5.40
2023-04-22T11:47:57.169Z,3.92
2023-04-22T11:50:26.775Z,5.45
2023-04-22T11:52:58.846Z,2.50
2023-04-22T11:55:32.873Z,3.85
2023-04-22T11:58:07.622Z,4.30
2023-04-22T12:00:37.327Z,4.10
2023-04-22T12:03:08.065Z,3.10
2023-04-22T12:05:40.776Z,3.42
2023-04-22T12:08:11.832Z,4.22
2023-04-22T12:10:44.116Z,2.38
2023-04-22T12:13:18.634Z,7.63
2023-04-22T12:15:45.692Z,4.03
2023-04-22T12:18:12.844Z,4.53
2023-04-22T12:20:41.473Z,4.15
2023-04-22T12:23:15.466Z,3.05
2023-04-22T12:25:43.660Z,4.38
2023-04-22T12:28:11.199Z,1.83
2023-04-22T12:30:38.018Z,3.08
2023-04-22T12:33:04.815Z,2.13
2023-04-22T12:35:31.557Z,3.25
2023-04-22T12:37:58.580Z,5.60
2023-04-22T12:40:25.364Z,2.40
2023-04-22T12:42:52.121Z,2.50
2023-04-22T12:45:19.011Z,2.42
2023-04-22T12:47:47.045Z,2.22
2023-04-22T12:50:13.921Z,2.25
2023-04-22T12:52:40.735Z,2.65
2023-04-22T12:55:08.124Z,2.70
2023-04-22T12:57:35.546Z,5.47
2023-04-22T13:00:02.287Z,1.88
2023-04-22T13:02:29.091Z,3.67
2023-04-22T13:04:56.632Z,5.70
2023-04-22T13:07:23.396Z,3.25
2023-04-22T13:09:50.264Z,6.40
2023-04-22T13:12:16.972Z,1.70
2023-04-22T13:14:44.291Z,3.80
2023-04-22T13:17:11.489Z,7.53
2023-04-22T13:19:38.448Z,2.20
2023-04-22T13:22:05.278Z,1.77
2023-04-22T13:24:32.112Z,3.88
2023-04-22T13:26:59.035Z,2.97
2023-04-22T13:29:27.075Z,4.03
2023-04-22T13:31:53.844Z,2.05
2023-04-22T13:34:20.823Z,1.90
2023-04-22T13:36:47.739Z,2.30
2023-04-22T13:39:15.015Z,3.22
2023-04-22T13:41:42.188Z,2.75
2023-04-22T13:44:12.393Z,3.00
2023-04-22T13:46:39.812Z,1.45
2023-04-22T13:49:06.834Z,1.90
2023-04-22T13:51:33.765Z,3.13
2023-04-22T13:54:01.423Z,2.35
2023-04-22T13:56:29.203Z,6.07
2023-04-22T13:58:56.104Z,4.43
2023-04-22T14:01:23.037Z,2.30
2023-04-22T14:03:50.921Z,3.25
2023-04-22T14:06:19.402Z,2.13
2023-04-22T14:08:46.383Z,3.25
2023-04-22T14:11:13.562Z,3.17
2023-04-22T14:13:40.694Z,1.75
2023-04-22T14:16:09.761Z,2.03
2023-04-22T14:18:38.082Z,1.92
2023-04-22T14:21:07.777Z,1.75
2023-04-22T14:23:36.097Z,4.18
2023-04-22T14:26:03.116Z,3.67
2023-04-22T14:28:29.927Z,2.35
2023-04-22T14:30:57.125Z,3.78
2023-04-22T14:33:24.807Z,2.28
2023-04-22T14:35:52.595Z,2.75
2023-04-22T14:38:20.028Z,3.28
2023-04-22T14:40:47.437Z,2.03
2023-04-22T14:43:15.272Z,2.35
2023-04-22T14:45:41.995Z,2.40
2023-04-22T14:48:08.898Z,2.45
2023-04-22T14:50:35.993Z,3.13
2023-04-22T14:53:02.828Z,3.03
2023-04-22T14:55:31.286Z,3.15
2023-04-22T14:57:58.530Z,2.75
2023-04-22T15:00:26.114Z,4.63
2023-04-22T15:02:54.621Z,2.17
2023-04-22T15:05:23.484Z,4.38
2023-04-22T15:07:51.005Z,4.03
2023-04-22T15:10:18.028Z,2.83
2023-04-22T15:12:45.230Z,2.78
2023-04-22T15:15:16.811Z,3.70
2023-04-22T15:17:44.480Z,1.70
2023-04-22T15:20:12.264Z,3.45
2023-04-22T15:22:43.201Z,3.83
2023-04-22T15:25:10.931Z,7.38
2023-04-22T15:27:38.576Z,3.70
2023-04-22T15:30:06.574Z,2.45
2023-04-22T15:32:33.591Z,2.88
2023-04-22T15:35:00.919Z,1.40
2023-04-22T15:37:27.953Z,1.63
2023-04-22T15:39:54.682Z,2.65
2023-04-22T15:42:21.408Z,2.03
2023-04-22T15:44:48.094Z,2.65
2023-04-22T15:47:16.692Z,2.25
2023-04-22T15:49:44.266Z,4.50
2023-04-22T15:52:11.042Z,1.88
2023-04-22T15:54:37.749Z,2.75
2023-04-22T15:57:04.475Z,1.88
2023-04-22T15:59:31.154Z,3.05
2023-04-22T16:01:57.988Z,2.63
2023-04-22T16:04:25.049Z,3.00
2023-04-22T16:06:51.926Z,2.58
2023-04-22T16:09:19.334Z,2.55
2023-04-22T16:11:46.062Z,3.88
2023-04-22T16:14:12.787Z,3.08
2023-04-22T16:16:41.117Z,3.33
2023-04-22T16:19:08.345Z,1.70
2023-04-22T16:21:35.371Z,3.72
2023-04-22T16:24:02.249Z,3.35
2023-04-22T16:26:28.979Z,2.90
2023-04-22T16:28:55.851Z,3.80
2023-04-22T16:31:23.141Z,2.17
2023-04-22T16:33:53.412Z,7.10
2023-04-22T16:36:20.508Z,2.95
2023-04-22T16:38:47.288Z,2.38
2023-04-22T16:41:15.434Z,2.17
2023-04-22T16:43:42.234Z,2.92
2023-04-22T16:46:09.096Z,3.78
2023-04-22T16:48:36.048Z,3.10
2023-04-22T16:51:02.893Z,7.18
2023-04-22T16:53:30.578Z,6.60
2023-04-22T16:55:57.402Z,7.75
2023-04-22T16:58:24.342Z,11.73
2023-04-22T17:00:51.492Z,5.13
2023-04-22T17:03:18.435Z,5.47
2023-04-22T17:05:45.208Z,4.97
2023-04-22T17:08:11.969Z,9.80
2023-04-22T17:10:44.906Z,12.10
2023-04-22T17:13:13.488Z,3.92
2023-04-22T17:15:41.143Z,5.60
2023-04-22T17:18:08.078Z,9.93
2023-04-22T17:20:36.318Z,3.28
2023-04-22T17:23:04.106Z,9.02
2023-04-22T17:25:31.282Z,4.88
2023-04-22T17:27:58.558Z,4.68
2023-04-22T17:30:25.403Z,6.93
2023-04-22T17:32:52.253Z,6.65
2023-04-22T17:35:19.113Z,4.18
2023-04-22T17:37:45.891Z,2.65
2023-04-22T17:40:12.784Z,4.72
2023-04-22T17:42:45.971Z,4.82
2023-04-22T17:45:13.440Z,7.63
2023-04-22T17:47:40.316Z,5.30
2023-04-22T17:50:07.917Z,8.40
2023-04-22T17:52:34.670Z,4.50
2023-04-22T17:55:01.423Z,5.57
2023-04-22T17:57:28.493Z,6.80
2023-04-22T17:59:55.475Z,5.13
2023-04-22T18:02:22.496Z,10.07
2023-04-22T18:04:49.432Z,22.70
2023-04-22T18:07:16.576Z,16.83
2023-04-22T18:09:43.788Z,18.15
2023-04-22T18:12:10.745Z,13.38
2023-04-22T18:14:37.604Z,16.95
2023-04-22T18:17:04.560Z,13.57
2023-04-22T18:19:31.333Z,15.35
2023-04-22T18:22:00.335Z,12.77
2023-04-22T18:24:27.957Z,14.57
2023-04-22T18:26:54.726Z,19.13
2023-04-22T18:29:21.585Z,16.90
2023-04-22T18:31:48.690Z,17.92
2023-04-22T18:34:15.952Z,12.80
2023-04-22T18:36:42.810Z,17.13
2023-04-22T18:39:10.028Z,27.10
2023-04-22T18:41:38.647Z,27.85
2023-04-22T18:44:05.865Z,23.52
2023-04-22T18:46:32.919Z,32.90
2023-04-22T18:48:59.714Z,36.53
2023-04-22T18:51:27.704Z,53.80
2023-04-22T18:53:54.473Z,99.13
2023-04-22T18:56:21.311Z,89.15
2023-04-22T18:58:48.319Z,54.22
2023-04-22T19:01:15.094Z,48.47
2023-04-22T19:03:42.287Z,53.13
2023-04-22T19:06:09.142Z,40.20
2023-04-22T19:08:35.973Z,37.28
2023-04-22T19:11:02.728Z,28.17
2023-04-22T19:13:30.320Z,35.03
2023-04-22T19:15:57.698Z,35.70
2023-04-22T19:18:24.464Z,36.55
2023-04-22T19:20:51.280Z,38.13
2023-04-22T19:23:18.258Z,34.13
2023-04-22T19:25:44.948Z,62.22
2023-04-22T19:28:12.171Z,64.47
2023-04-22T19:30:38.963Z,55.90
2023-04-22T19:33:05.773Z,49.80
2023-04-22T19:35:32.623Z,48.75
2023-04-22T19:38:00.817Z,50.13
2023-04-22T19:40:27.773Z,48.47
2023-04-22T19:42:54.947Z,47.17
2023-04-22T19:45:21.758Z,53.20
2023-04-22T19:47:48.878Z,55.73
2023-04-22T19:50:16.679Z,62.73
2023-04-22T19:52:46.526Z,60.63
2023-04-22T19:55:13.741Z,58.95
2023-04-22T19:57:42.327Z,56.30
2023-04-22T20:00:11.165Z,57.27
2023-04-22T20:02:38.953Z,48.77
2023-04-22T20:05:06.476Z,51.97
2023-04-22T20:07:34.589Z,55.97
2023-04-22T20:10:05.845Z,58.63
2023-04-22T20:12:33.018Z,65.47
2023-04-22T20:15:00.133Z,60.13
2023-04-22T20:17:27.683Z,65.47
2023-04-22T20:19:55.353Z,65.80
2023-04-22T20:22:26.983Z,68.83
2023-04-22T20:25:03.819Z,80.83
2023-04-22T20:27:31.455Z,79.30
2023-04-22T20:29:59.306Z,73.07
2023-04-22T20:32:28.080Z,75.10
2023-04-22T20:34:56.085Z,71.57
2023-04-22T20:37:24.917Z,71.03
2023-04-22T20:39:53.074Z,71.30
2023-04-22T20:42:21.946Z,71.63
2023-04-22T20:44:48.813Z,75.20
2023-04-22T20:47:16.495Z,69.17
2023-04-22T20:49:43.921Z,74.53
2023-04-22T20:52:11.951Z,81.40
2023-04-22T20:54:39.790Z,79.80
2023-04-22T20:57:07.519Z,86.47
2023-04-22T20:59:35.513Z,84.30
2023-04-22T21:02:07.202Z,82.10
2023-04-22T21:04:34.885Z,74.87
2023-04-22T21:07:06.950Z,82.93
2023-04-22T21:09:34.586Z,84.73
2023-04-22T21:12:02.371Z,78.67
2023-04-22T21:14:29.818Z,85.83
2023-04-22T21:17:32.341Z,85.67
2023-04-22T21:19:59.904Z,80.77
2023-04-22T21:22:26.977Z,75.00
2023-04-22T21:24:54.190Z,77.73
2023-04-22T21:27:22.449Z,88.10
2023-04-22T21:29:50.052Z,86.63
2023-04-22T21:32:17.409Z,75.40
2023-04-22T21:34:45.134Z,84.60
2023-04-22T21:37:13.383Z,83.43
2023-04-22T21:39:40.757Z,82.17
2023-04-22T21:42:08.589Z,93.77
2023-04-22T21:44:36.822Z,87.67
2023-04-22T21:47:04.509Z,100.93
2023-04-22T21:49:31.621Z,93.70
2023-04-22T21:51:59.718Z,93.40
2023-04-22T21:54:26.670Z,85.70
2023-04-22T21:56:53.514Z,88.17
2023-04-22T21:59:20.427Z,81.30
2023-04-22T22:01:47.456Z,88.90
2023-04-22T22:04:16.160Z,86.10
2023-04-22T22:06:44.735Z,81.93
2023-04-22T22:09:12.679Z,83.03
2023-04-22T22:11:39.443Z,75.70
2023-04-22T22:14:06.304Z,73.50
2023-04-22T22:16:33.555Z,76.37
2023-04-22T22:19:02.752Z,68.70
2023-04-22T22:21:31.632Z,67.80
2023-04-22T22:23:58.625Z,58.37
2023-04-22T22:26:26.242Z,65.73
2023-04-22T22:28:53.156Z,65.33
2023-04-22T22:31:20.037Z,58.23
2023-04-22T22:33:47.025Z,52.87
2023-04-22T22:36:14.024Z,52.10
2023-04-22T22:38:40.801Z,44.60
2023-04-22T22:41:07.884Z,44.43
2023-04-22T22:43:34.811Z,40.97
2023-04-22T22:46:02.824Z,39.70
2023-04-22T22:48:30.104Z,38.00
2023-04-22T22:50:57.210Z,36.90
2023-04-22T22:53:24.045Z,31.57
2023-04-22T22:55:50.951Z,36.73
2023-04-22T22:58:17.721Z,35.97
2023-04-22T23:00:44.607Z,41.80
2023-04-22T23:03:11.672Z,31.13
2023-04-22T23:05:38.688Z,30.33
2023-04-22T23:08:05.811Z,29.63
2023-04-22T23:10:32.716Z,26.37
2023-04-22T23:12:59.538Z,27.87
2023-04-22T23:15:26.364Z,28.53
2023-04-22T23:17:53.287Z,26.33
2023-04-22T23:20:20.472Z,23.27
2023-04-22T23:22:50.143Z,23.43
2023-04-22T23:25:17.502Z,24.30
2023-04-22T23:27:45.036Z,24.10
2023-04-22T23:30:12.338Z,24.87
2023-04-22T23:32:43.317Z,26.10
2023-04-22T23:35:12.632Z,21.40
2023-04-22T23:37:45.062Z,22.47
2023-04-22T23:40:12.443Z,21.93
2023-04-22T23:42:39.518Z,22.37
2023-04-22T23:45:07.299Z,24.33
2023-04-22T23:47:34.434Z,20.07
2023-04-22T23:50:01.595Z,21.10
2023-04-22T23:52:28.728Z,21.30
2023-04-22T23:54:57.083Z,20.37
2023-04-22T23:57:24.242Z,21.00
2023-04-22T23:59:51.609Z,18.13
